createdAt,value
2023-03-26T00:00:44.750Z,96018.44
2023-03-26T00:03:12.505Z,96021.38
2023-03-26T00:05:39.897Z,96031.28
2023-03-26T00:08:10.208Z,96031.22
2023-03-26T00:10:38.895Z,96024.41
2023-03-26T00:13:06.426Z,96021.22
2023-03-26T00:15:34.600Z,96016.50
2023-03-26T00:18:01.507Z,96008.34
2023-03-26T00:20:29.670Z,96006.72
2023-03-26T00:22:56.118Z,96012.88
2023-03-26T00:25:23.687Z,96011.69
2023-03-26T00:27:50.853Z,96005.41
2023-03-26T00:30:17.251Z,96001.47
2023-03-26T00:32:44.215Z,95999.63
2023-03-26T00:35:20.735Z,96002.81
2023-03-26T00:37:47.120Z,96004.38
2023-03-26T00:40:13.652Z,96005.72
2023-03-26T00:42:40.148Z,95995.28
2023-03-26T00:45:07.761Z,95992.91
2023-03-26T00:47:34.655Z,95993.25
2023-03-26T00:50:01.406Z,95995.41
2023-03-26T00:52:28.677Z,95989.59
2023-03-26T00:54:56.030Z,95972.09
2023-03-26T00:57:34.540Z,95967.00
2023-03-26T01:00:15.863Z,95959.47
2023-03-26T01:02:45.050Z,95955.00
2023-03-26T01:05:45.173Z,95950.53
2023-03-26T01:08:33.817Z,95942.81
2023-03-26T01:11:07.349Z,95949.28
2023-03-26T01:13:37.445Z,95954.81
2023-03-26T01:16:11.196Z,95956.38
2023-03-26T01:18:41.075Z,95960.59
2023-03-26T01:21:09.274Z,95940.63
2023-03-26T01:23:41.569Z,95940.56
2023-03-26T01:26:37.687Z,95932.69
2023-03-26T01:29:08.326Z,95930.63
2023-03-26T01:31:57.991Z,95941.19
2023-03-26T01:34:41.258Z,95949.78
2023-03-26T01:37:27.192Z,95939.72
2023-03-26T01:39:57.435Z,95926.00
2023-03-26T01:42:55.257Z,95925.69
2023-03-26T01:45:26.495Z,95934.44
2023-03-26T01:47:53.230Z,95935.00
2023-03-26T01:50:19.812Z,95929.16
2023-03-26T01:52:46.196Z,95925.00
2023-03-26T01:55:14.298Z,95925.19
2023-03-26T01:57:40.733Z,95938.69
2023-03-26T02:00:18.533Z,95931.81
2023-03-26T02:03:09.054Z,95918.97
2023-03-26T02:05:41.870Z,95913.19
2023-03-26T02:08:21.049Z,95920.72
2023-03-26T02:10:52.383Z,95936.06
2023-03-26T02:13:19.117Z,95935.44
2023-03-26T02:15:57.639Z,95932.56
2023-03-26T02:18:24.757Z,95928.38
2023-03-26T02:20:55.642Z,95931.75
2023-03-26T02:23:22.137Z,95925.59
2023-03-26T02:25:49.057Z,95920.81
2023-03-26T02:28:16.979Z,95918.91
2023-03-26T02:30:45.850Z,95919.28
2023-03-26T02:33:15.239Z,95925.66
2023-03-26T02:35:45.941Z,95920.38
2023-03-26T02:38:14.468Z,95911.72
2023-03-26T02:40:41.605Z,95920.94
2023-03-26T02:43:08.552Z,95934.50
2023-03-26T02:45:35.360Z,95931.59
2023-03-26T02:48:01.853Z,95926.13
2023-03-26T02:50:28.429Z,95921.44
2023-03-26T02:52:54.825Z,95914.56
2023-03-26T02:55:21.204Z,95910.94
2023-03-26T02:57:47.635Z,95910.47
2023-03-26T03:00:14.510Z,95911.38
2023-03-26T03:02:41.245Z,95917.34
2023-03-26T03:05:08.398Z,95899.50
2023-03-26T03:07:38.762Z,95897.00
2023-03-26T03:10:08.291Z,95889.00
2023-03-26T03:12:35.161Z,95891.03
2023-03-26T03:15:01.552Z,95896.88
2023-03-26T03:17:28.030Z,95904.31
2023-03-26T03:19:54.458Z,95901.22
2023-03-26T03:22:21.193Z,95894.59
2023-03-26T03:24:47.605Z,95886.50
2023-03-26T03:27:14.046Z,95878.28
2023-03-26T03:29:41.280Z,95898.88
2023-03-26T03:32:07.660Z,95913.78
2023-03-26T03:34:34.084Z,95910.88
2023-03-26T03:37:00.595Z,95916.59
2023-03-26T03:39:26.966Z,95916.03
2023-03-26T03:41:53.529Z,95920.28
2023-03-26T03:44:19.922Z,95899.13
2023-03-26T03:46:49.012Z,95883.59
2023-03-26T03:49:15.550Z,95884.91
2023-03-26T03:51:42.462Z,95880.69
2023-03-26T03:54:08.889Z,95891.47
2023-03-26T03:56:36.062Z,95894.72
2023-03-26T03:59:02.562Z,95891.94
2023-03-26T04:01:30.630Z,95890.13
2023-03-26T04:03:58.511Z,95888.22
2023-03-26T04:06:25.162Z,95891.69
2023-03-26T04:08:52.212Z,95888.78
2023-03-26T04:11:18.665Z,95886.63
2023-03-26T04:13:45.239Z,95888.22
2023-03-26T04:16:11.787Z,95894.06
2023-03-26T04:18:38.263Z,95896.25
2023-03-26T04:21:07.425Z,95888.63
2023-03-26T04:23:35.234Z,95893.63
2023-03-26T04:26:05.203Z,95888.44
2023-03-26T04:28:48.665Z,95874.13
2023-03-26T04:31:16.789Z,95874.38
2023-03-26T04:33:47.734Z,95874.47
2023-03-26T04:36:16.540Z,95877.13
2023-03-26T04:38:46.040Z,95880.59
2023-03-26T04:41:13.494Z,95875.84
2023-03-26T04:43:47.177Z,95872.31
2023-03-26T04:46:14.279Z,95874.22
2023-03-26T04:48:41.013Z,95886.16
2023-03-26T04:51:07.527Z,95888.47
2023-03-26T04:53:34.411Z,95889.81
2023-03-26T04:56:09.697Z,95883.53
2023-03-26T04:58:36.051Z,95889.53
2023-03-26T05:01:09.962Z,95900.09
2023-03-26T05:03:41.227Z,95900.56
2023-03-26T05:06:11.428Z,95903.78
2023-03-26T05:08:37.810Z,95898.50
2023-03-26T05:11:07.366Z,95895.59
2023-03-26T05:13:33.725Z,95898.03
2023-03-26T05:16:00.280Z,95896.63
2023-03-26T05:18:26.812Z,95896.13
2023-03-26T05:20:53.469Z,95886.41
2023-03-26T05:23:19.993Z,95888.53
2023-03-26T05:25:47.105Z,95876.41
2023-03-26T05:28:13.504Z,95894.88
2023-03-26T05:30:40.002Z,95880.97
2023-03-26T05:33:06.624Z,95876.72
2023-03-26T05:35:33.181Z,95873.25
2023-03-26T05:37:59.580Z,95862.69
2023-03-26T05:40:26.068Z,95852.22
2023-03-26T05:42:52.540Z,95844.81
2023-03-26T05:45:19.044Z,95843.28
2023-03-26T05:47:45.597Z,95844.84
2023-03-26T05:50:12.004Z,95842.69
2023-03-26T05:52:38.611Z,95840.56
2023-03-26T05:55:05.570Z,95849.84
2023-03-26T05:57:32.529Z,95845.09
2023-03-26T05:59:59.018Z,95848.72
2023-03-26T06:02:25.427Z,95857.44
2023-03-26T06:04:52.376Z,95866.66
2023-03-26T06:07:19.893Z,95850.63
2023-03-26T06:09:46.668Z,95842.69
2023-03-26T06:12:13.399Z,95854.75
2023-03-26T06:14:42.581Z,95872.66
2023-03-26T06:17:10.250Z,95872.16
2023-03-26T06:19:37.038Z,95876.91
2023-03-26T06:22:04.246Z,95878.25
2023-03-26T06:24:30.847Z,95881.91
2023-03-26T06:26:57.342Z,95885.38
2023-03-26T06:29:24.753Z,95889.03
2023-03-26T06:31:51.136Z,95892.69
2023-03-26T06:34:17.509Z,95891.03
2023-03-26T06:36:43.906Z,95892.56
2023-03-26T06:39:10.394Z,95886.69
2023-03-26T06:41:36.804Z,95888.97
2023-03-26T06:44:03.209Z,95890.81
2023-03-26T06:46:29.662Z,95897.91
2023-03-26T06:48:56.203Z,95888.88
2023-03-26T06:51:22.840Z,95892.00
2023-03-26T06:53:49.208Z,95884.97
2023-03-26T06:56:15.859Z,95897.72
2023-03-26T06:58:42.307Z,95906.03
2023-03-26T07:01:08.853Z,95903.91
2023-03-26T07:03:35.483Z,95897.31
2023-03-26T07:06:01.997Z,95893.34
2023-03-26T07:08:28.450Z,95894.50
2023-03-26T07:10:54.974Z,95896.09
2023-03-26T07:13:21.545Z,95897.72
2023-03-26T07:15:49.141Z,95886.88
2023-03-26T07:18:15.572Z,95880.25
2023-03-26T07:20:43.720Z,95881.41
2023-03-26T07:23:11.678Z,95877.34
2023-03-26T07:25:38.545Z,95875.06
2023-03-26T07:28:20.746Z,95878.78
2023-03-26T07:30:59.503Z,95877.09
2023-03-26T07:33:42.998Z,95866.53
2023-03-26T07:36:29.974Z,95850.25
2023-03-26T07:39:08.472Z,95833.94
2023-03-26T07:41:49.755Z,95814.75
2023-03-26T07:44:37.445Z,95780.03
2023-03-26T07:47:18.034Z,95780.53
2023-03-26T07:49:44.716Z,95783.09
2023-03-26T07:52:11.562Z,95783.69
2023-03-26T07:54:38.201Z,95780.84
2023-03-26T07:57:22.468Z,95797.22
2023-03-26T07:59:48.854Z,95800.88
2023-03-26T08:02:34.908Z,95806.06
2023-03-26T08:05:10.725Z,95807.53
2023-03-26T08:07:46.210Z,95814.38
2023-03-26T08:10:22.525Z,95823.72
2023-03-26T08:13:20.881Z,95813.41
2023-03-26T08:16:12.058Z,95802.53
2023-03-26T08:19:09.024Z,95794.88
2023-03-26T08:21:42.128Z,95798.19
2023-03-26T08:24:11.183Z,95793.50
2023-03-26T08:26:52.844Z,95791.03
2023-03-26T08:29:49.888Z,95788.50
2023-03-26T08:32:18.719Z,95786.34
2023-03-26T08:34:46.212Z,95788.81
2023-03-26T08:37:13.242Z,95798.31
2023-03-26T08:39:41.730Z,95782.59
2023-03-26T08:42:35.995Z,95774.06
2023-03-26T08:45:27.041Z,95757.66
2023-03-26T08:48:15.427Z,95756.75
2023-03-26T08:51:01.466Z,95753.53
2023-03-26T08:53:55.668Z,95761.38
2023-03-26T08:56:37.344Z,95765.88
2023-03-26T08:59:19.131Z,95768.13
2023-03-26T09:02:17.106Z,95781.75
2023-03-26T09:04:55.718Z,95777.22
2023-03-26T09:07:37.323Z,95768.00
2023-03-26T09:10:41.014Z,95761.53
2023-03-26T09:13:31.832Z,95733.03
2023-03-26T09:16:33.909Z,95724.56
2023-03-26T09:19:22.011Z,95717.03
2023-03-26T09:22:07.164Z,95709.34
2023-03-26T09:24:39.735Z,95720.97
2023-03-26T09:27:31.384Z,95720.84
2023-03-26T09:30:16.451Z,95727.91
2023-03-26T09:33:05.210Z,95738.34
2023-03-26T09:35:50.558Z,95746.91
2023-03-26T09:38:43.675Z,95746.25
2023-03-26T09:41:25.389Z,95762.94
2023-03-26T09:44:02.591Z,95758.69
2023-03-26T09:46:41.061Z,95763.28
2023-03-26T09:49:40.662Z,95753.00
2023-03-26T09:52:57.791Z,95752.53
2023-03-26T09:55:46.061Z,95750.66
2023-03-26T09:58:12.429Z,95744.16
2023-03-26T10:00:47.996Z,95733.34
2023-03-26T10:03:41.191Z,95727.44
2023-03-26T10:06:34.696Z,95719.78
2023-03-26T10:09:06.887Z,95715.72
2023-03-26T10:11:54.528Z,95718.66
2023-03-26T10:14:42.434Z,95703.03
2023-03-26T10:17:25.636Z,95695.88
2023-03-26T10:20:31.759Z,95687.81
2023-03-26T10:23:12.459Z,95680.19
2023-03-26T10:25:59.148Z,95675.97
2023-03-26T10:28:43.237Z,95673.00
2023-03-26T10:31:29.385Z,95672.09
2023-03-26T10:34:28.933Z,95688.06
2023-03-26T10:37:37.767Z,95687.63
2023-03-26T10:40:19.140Z,95685.16
2023-03-26T10:42:48.131Z,95685.97
2023-03-26T10:45:35.855Z,95665.88
2023-03-26T10:48:29.924Z,95647.00
2023-03-26T10:51:15.423Z,95624.53
2023-03-26T10:53:59.780Z,95620.97
2023-03-26T10:56:41.195Z,95621.78
2023-03-26T10:59:12.428Z,95626.19
2023-03-26T11:01:38.734Z,95619.34
2023-03-26T11:04:25.449Z,95610.91
2023-03-26T11:07:11.270Z,95601.81
2023-03-26T11:09:49.814Z,95605.28
2023-03-26T11:12:32.092Z,95614.03
2023-03-26T11:15:01.516Z,95606.22
2023-03-26T11:17:40.942Z,95612.78
2023-03-26T11:20:20.842Z,95608.09
2023-03-26T11:23:01.754Z,95603.06
2023-03-26T11:25:49.171Z,95603.69
2023-03-26T11:28:25.951Z,95605.88
2023-03-26T11:31:13.388Z,95598.84
2023-03-26T11:33:45.457Z,95585.72
2023-03-26T11:36:18.278Z,95586.78
2023-03-26T11:38:49.136Z,95588.31
2023-03-26T11:41:23.224Z,95598.81
2023-03-26T11:43:56.368Z,95598.47
2023-03-26T11:46:25.808Z,95601.75
2023-03-26T11:48:59.921Z,95597.97
2023-03-26T11:51:32.650Z,95606.56
2023-03-26T11:54:00.152Z,95612.00
2023-03-26T11:56:36.979Z,95622.00
2023-03-26T11:59:10.021Z,95624.00
2023-03-26T12:01:52.499Z,95626.78
2023-03-26T12:04:35.407Z,95636.44
2023-03-26T12:07:34.832Z,95645.78
2023-03-26T12:10:15.610Z,95635.94
2023-03-26T12:12:46.985Z,95633.81
2023-03-26T12:15:19.368Z,95627.59
2023-03-26T12:17:53.489Z,95625.94
2023-03-26T12:20:26.237Z,95626.06
2023-03-26T12:22:59.024Z,95626.19
2023-03-26T12:25:27.960Z,95623.94
2023-03-26T12:28:17.411Z,95616.00
2023-03-26T12:31:01.501Z,95613.94
2023-03-26T12:33:34.227Z,95603.34
2023-03-26T12:36:19.492Z,95594.50
2023-03-26T12:38:46.048Z,95600.25
2023-03-26T12:44:50.276Z,95593.25
2023-03-26T12:44:53.176Z,95578.09
2023-03-26T12:47:58.145Z,95566.19
2023-03-26T12:50:14.597Z,95556.59
2023-03-26T12:53:26.436Z,95559.56
2023-03-26T12:56:07.278Z,95561.53
2023-03-26T12:58:53.438Z,95565.56
2023-03-26T13:01:52.878Z,95566.78
2023-03-26T13:04:28.779Z,95555.22
2023-03-26T13:07:04.391Z,95531.50
2023-03-26T13:09:40.997Z,95526.56
2023-03-26T13:12:34.064Z,95520.16
2023-03-26T13:15:08.953Z,95524.69
2023-03-26T13:17:39.427Z,95522.00
2023-03-26T13:20:15.654Z,95514.16
2023-03-26T13:23:03.709Z,95511.41
2023-03-26T13:25:45.752Z,95522.66
2023-03-26T13:28:15.242Z,95523.06
2023-03-26T13:30:50.054Z,95520.28
2023-03-26T13:33:38.349Z,95509.25
2023-03-26T13:36:23.845Z,95497.44
2023-03-26T13:39:03.348Z,95501.63
2023-03-26T13:41:51.219Z,95489.16
2023-03-26T13:44:36.881Z,95484.31
2023-03-26T13:47:31.944Z,95490.22
2023-03-26T13:50:06.154Z,95487.56
2023-03-26T13:52:42.203Z,95468.53
2023-03-26T13:55:27.840Z,95460.56
2023-03-26T13:58:12.091Z,95458.19
2023-03-26T14:00:48.665Z,95453.75
2023-03-26T14:03:30.426Z,95456.53
2023-03-26T14:06:02.023Z,95453.25
2023-03-26T14:08:37.843Z,95454.41
2023-03-26T14:11:10.933Z,95442.09
2023-03-26T14:13:49.596Z,95424.53
2023-03-26T14:16:27.825Z,95406.91
2023-03-26T14:19:04.992Z,95389.34
2023-03-26T14:21:50.187Z,95385.00
2023-03-26T14:24:22.727Z,95380.47
2023-03-26T14:26:54.873Z,95381.25
2023-03-26T14:30:03.728Z,95376.72
2023-03-26T14:32:51.069Z,95358.50
2023-03-26T14:35:27.981Z,95346.03
2023-03-26T14:38:07.981Z,95334.34
2023-03-26T14:40:57.859Z,95331.41
2023-03-26T14:43:55.428Z,95348.84
2023-03-26T14:46:56.320Z,95366.75
2023-03-26T14:49:46.005Z,95366.28
2023-03-26T14:52:21.143Z,95349.59
2023-03-26T14:54:52.694Z,95341.03
2023-03-26T14:57:57.119Z,95345.06
2023-03-26T15:00:23.714Z,95349.06
2023-03-26T15:03:03.394Z,95333.78
2023-03-26T15:06:00.639Z,95310.28
2023-03-26T15:09:04.709Z,95293.13
2023-03-26T15:12:13.085Z,95305.31
2023-03-26T15:15:18.442Z,95324.16
2023-03-26T15:18:07.240Z,95324.16
2023-03-26T15:20:55.898Z,95312.59
2023-03-26T15:23:34.753Z,95300.28
2023-03-26T15:26:23.413Z,95290.63
2023-03-26T15:29:03.948Z,95300.31
2023-03-26T15:31:47.497Z,95303.59
2023-03-26T15:34:24.531Z,95290.50
2023-03-26T15:37:12.633Z,95274.75
2023-03-26T15:40:12.644Z,95267.28
2023-03-26T15:43:07.852Z,95284.72
2023-03-26T15:45:40.091Z,95281.34
2023-03-26T15:48:12.633Z,95279.13
2023-03-26T15:50:51.281Z,95283.81
2023-03-26T15:53:26.542Z,95273.88
2023-03-26T15:56:06.660Z,95269.03
2023-03-26T15:58:42.843Z,95255.47
2023-03-26T16:01:36.924Z,95273.56
2023-03-26T16:04:17.649Z,95275.72
2023-03-26T16:06:59.060Z,95276.53
2023-03-26T16:09:40.612Z,95276.97
2023-03-26T16:12:16.216Z,95278.22
2023-03-26T16:15:05.718Z,95282.28
2023-03-26T16:18:16.933Z,95284.78
2023-03-26T16:20:57.085Z,95268.44
2023-03-26T16:23:47.887Z,95248.78
2023-03-26T16:26:23.582Z,95202.94
2023-03-26T16:28:53.338Z,95196.44
2023-03-26T16:31:37.779Z,95212.28
2023-03-26T16:34:06.999Z,95236.13
2023-03-26T16:36:36.079Z,95241.44
2023-03-26T16:39:38.937Z,95246.28
2023-03-26T16:42:39.693Z,95220.25
2023-03-26T16:45:34.744Z,95200.88
2023-03-26T16:48:16.400Z,95191.41
2023-03-26T16:51:04.240Z,95177.97
2023-03-26T16:53:33.654Z,95182.97
2023-03-26T16:56:12.420Z,95182.34
2023-03-26T16:58:56.205Z,95188.22
2023-03-26T17:01:41.448Z,95185.28
2023-03-26T17:04:20.500Z,95176.22
2023-03-26T17:07:01.511Z,95163.13
2023-03-26T17:09:40.106Z,95149.44
2023-03-26T17:12:29.971Z,95148.94
2023-03-26T17:15:11.880Z,95135.13
2023-03-26T17:18:02.457Z,95141.22
2023-03-26T17:20:36.002Z,95145.28
2023-03-26T17:23:41.347Z,95148.84
2023-03-26T17:26:31.055Z,95149.34
2023-03-26T17:29:01.884Z,95149.47
2023-03-26T17:31:41.184Z,95138.75
2023-03-26T17:34:39.001Z,95144.50
2023-03-26T17:37:10.572Z,95130.03
2023-03-26T17:39:40.311Z,95135.47
2023-03-26T17:42:16.125Z,95135.94
2023-03-26T17:44:47.038Z,95148.56
2023-03-26T17:47:19.995Z,95149.97
2023-03-26T17:49:51.001Z,95158.19
2023-03-26T17:52:33.386Z,95154.91
2023-03-26T17:55:01.935Z,95156.94
2023-03-26T17:57:46.366Z,95155.34
2023-03-26T18:00:32.726Z,95154.72
2023-03-26T18:03:04.701Z,95159.38
2023-03-26T18:05:32.945Z,95155.00
2023-03-26T18:08:14.142Z,95167.47
2023-03-26T18:11:03.938Z,95173.50
2023-03-26T18:13:51.307Z,95168.69
2023-03-26T18:16:32.867Z,95168.78
2023-03-26T18:19:19.066Z,95165.34
2023-03-26T18:21:54.475Z,95171.53
2023-03-26T18:24:25.046Z,95176.19
2023-03-26T18:27:12.417Z,95185.31
2023-03-26T18:29:44.216Z,95183.41
2023-03-26T18:32:10.794Z,95176.81
2023-03-26T18:34:39.804Z,95176.19
2023-03-26T18:37:17.783Z,95176.81
2023-03-26T18:39:57.946Z,95172.84
2023-03-26T18:42:26.938Z,95176.53
2023-03-26T18:44:53.763Z,95183.53
2023-03-26T18:47:29.310Z,95185.44
2023-03-26T18:49:57.458Z,95187.91
2023-03-26T18:52:24.386Z,95195.09
2023-03-26T18:54:53.829Z,95179.22
2023-03-26T18:57:23.635Z,95181.47
2023-03-26T18:59:52.774Z,95178.72
2023-03-26T19:02:21.604Z,95179.84
2023-03-26T19:04:50.236Z,95174.06
2023-03-26T19:07:22.451Z,95181.31
2023-03-26T19:09:50.164Z,95172.97
2023-03-26T19:12:18.304Z,95166.81
2023-03-26T19:14:54.085Z,95173.75
2023-03-26T19:17:21.541Z,95175.44
2023-03-26T19:19:49.730Z,95178.41
2023-03-26T19:22:16.891Z,95181.50
2023-03-26T19:24:43.846Z,95189.63
2023-03-26T19:27:10.752Z,95188.63
2023-03-26T19:29:37.181Z,95196.75
2023-03-26T19:32:17.648Z,95203.69
2023-03-26T19:34:46.728Z,95212.59
2023-03-26T19:37:22.670Z,95219.34
2023-03-26T19:39:52.397Z,95224.16
2023-03-26T19:42:26.185Z,95227.06
2023-03-26T19:44:53.738Z,95234.31
2023-03-26T19:47:39.130Z,95237.03
2023-03-26T19:50:25.974Z,95240.53
2023-03-26T19:53:17.251Z,95234.22
2023-03-26T19:56:12.994Z,95238.03
2023-03-26T19:58:43.078Z,95229.69
2023-03-26T20:01:23.872Z,95239.06
2023-03-26T20:03:54.246Z,95236.84
2023-03-26T20:06:30.769Z,95229.22
2023-03-26T20:09:01.077Z,95229.63
2023-03-26T20:11:39.183Z,95226.50
2023-03-26T20:14:17.646Z,95214.47
2023-03-26T20:16:45.447Z,95210.06
2023-03-26T20:19:13.688Z,95207.63
2023-03-26T20:21:41.057Z,95198.44
2023-03-26T20:24:16.316Z,95211.72
2023-03-26T20:26:43.718Z,95213.69
2023-03-26T20:29:10.421Z,95208.81
2023-03-26T20:31:38.022Z,95205.78
2023-03-26T20:34:09.958Z,95199.03
2023-03-26T20:36:36.842Z,95197.09
2023-03-26T20:39:07.658Z,95190.03
2023-03-26T20:41:34.928Z,95187.09
2023-03-26T20:44:03.664Z,95189.03
2023-03-26T20:46:30.808Z,95177.13
2023-03-26T20:48:58.846Z,95165.03
2023-03-26T20:51:28.280Z,95166.75
2023-03-26T20:53:55.980Z,95166.25
2023-03-26T20:56:23.403Z,95169.66
2023-03-26T20:59:03.512Z,95168.09
2023-03-26T21:01:37.706Z,95169.72
2023-03-26T21:04:04.471Z,95168.47
2023-03-26T21:06:30.918Z,95165.09
2023-03-26T21:08:57.597Z,95161.06
2023-03-26T21:11:37.057Z,95162.13
2023-03-26T21:14:14.073Z,95161.63
2023-03-26T21:16:40.939Z,95149.84
2023-03-26T21:19:10.208Z,95148.69
2023-03-26T21:21:42.421Z,95148.22
2023-03-26T21:24:21.230Z,95151.91
2023-03-26T21:26:59.029Z,95149.75
2023-03-26T21:29:25.710Z,95136.19
2023-03-26T21:31:54.156Z,95142.84
2023-03-26T21:34:22.300Z,95147.94
2023-03-26T21:36:48.991Z,95134.03
2023-03-26T21:39:16.363Z,95150.09
2023-03-26T21:42:04.943Z,95152.44
2023-03-26T21:44:33.387Z,95137.44
2023-03-26T21:47:00.266Z,95137.44
2023-03-26T21:49:27.157Z,95135.13
2023-03-26T21:51:53.917Z,95132.75
2023-03-26T21:54:27.888Z,95137.19
2023-03-26T21:57:12.778Z,95140.41
2023-03-26T21:59:51.586Z,95124.81
2023-03-26T22:02:26.965Z,95125.28
2023-03-26T22:05:11.848Z,95126.75
2023-03-26T22:07:56.912Z,95130.69
2023-03-26T22:10:23.544Z,95130.88
2023-03-26T22:12:50.048Z,95144.13
2023-03-26T22:15:18.160Z,95140.06
2023-03-26T22:17:45.441Z,95147.34
2023-03-26T22:20:14.509Z,95139.94
2023-03-26T22:22:48.548Z,95137.19
2023-03-26T22:25:19.074Z,95138.38
2023-03-26T22:27:47.243Z,95130.38
2023-03-26T22:30:14.429Z,95134.47
2023-03-26T22:32:41.686Z,95134.38
2023-03-26T22:35:08.270Z,95128.72
2023-03-26T22:37:35.587Z,95131.06
2023-03-26T22:40:02.158Z,95137.09
2023-03-26T22:42:28.589Z,95130.56
2023-03-26T22:44:54.941Z,95132.41
2023-03-26T22:47:21.784Z,95129.47
2023-03-26T22:49:48.243Z,95123.66
2023-03-26T22:52:14.632Z,95136.09
2023-03-26T22:54:41.033Z,95140.16
2023-03-26T22:57:07.568Z,95133.34
2023-03-26T22:59:34.045Z,95134.84
2023-03-26T23:02:00.520Z,95140.59
2023-03-26T23:04:31.646Z,95136.72
2023-03-26T23:07:01.249Z,95141.38
2023-03-26T23:09:27.757Z,95146.38
2023-03-26T23:11:54.167Z,95144.41
2023-03-26T23:14:21.732Z,95141.81
2023-03-26T23:16:48.137Z,95150.28
2023-03-26T23:19:14.680Z,95152.53
2023-03-26T23:21:41.303Z,95161.13
2023-03-26T23:24:08.115Z,95152.31
2023-03-26T23:26:43.837Z,95157.59
2023-03-26T23:29:16.447Z,95165.19
2023-03-26T23:31:42.947Z,95163.56
2023-03-26T23:34:10.021Z,95163.75
2023-03-26T23:36:36.416Z,95164.25
2023-03-26T23:39:04.625Z,95159.53
2023-03-26T23:41:31.114Z,95162.66
2023-03-26T23:43:57.523Z,95173.56
2023-03-26T23:46:30.894Z,95180.63
2023-03-26T23:48:59.836Z,95181.97
2023-03-26T23:51:26.709Z,95171.63
2023-03-26T23:53:53.661Z,95179.31
2023-03-26T23:56:20.133Z,95177.72
2023-03-26T23:58:48.580Z,95174.81
